createdAt,value
2022-08-17T00:02:26.259Z,84.90
2022-08-17T00:04:55.003Z,85.10
2022-08-17T00:07:22.376Z,85.10
2022-08-17T00:09:49.345Z,85.30
2022-08-17T00:12:41.114Z,85.40
2022-08-17T00:15:06.228Z,85.60
2022-08-17T00:17:37.534Z,86.30
2022-08-17T00:20:05.101Z,86.40
2022-08-17T00:22:36.316Z,86.80
2022-08-17T00:25:12.064Z,87.00
2022-08-17T00:27:39.285Z,87.80
2022-08-17T00:30:07.726Z,87.30
2022-08-17T00:33:23.066Z,87.70
2022-08-17T00:35:31.853Z,87.50
2022-08-17T00:37:58.707Z,87.90
2022-08-17T00:40:25.545Z,87.80
2022-08-17T00:42:53.465Z,88.10
2022-08-17T00:45:20.849Z,88.50
2022-08-17T00:47:48.490Z,88.90
2022-08-17T00:50:17.941Z,88.90
2022-08-17T00:52:54.764Z,89.30
2022-08-17T00:55:23.866Z,89.70
2022-08-17T00:57:55.523Z,90.00
2022-08-17T01:00:26.856Z,90.00
2022-08-17T01:03:00.444Z,90.00
2022-08-17T01:05:30.919Z,89.80
2022-08-17T01:08:00.244Z,90.10
2022-08-17T01:10:58.691Z,90.00
2022-08-17T01:13:31.245Z,90.30
2022-08-17T01:16:06.728Z,90.40
2022-08-17T01:18:34.738Z,90.50
2022-08-17T01:21:14.084Z,90.50
2022-08-17T01:23:42.607Z,90.60
2022-08-17T01:26:09.428Z,90.80
2022-08-17T01:28:54.328Z,90.80
2022-08-17T01:31:23.975Z,90.90
2022-08-17T01:33:51.476Z,90.90
2022-08-17T01:36:18.283Z,91.10
2022-08-17T01:38:45.063Z,91.10
2022-08-17T01:41:15.615Z,91.00
2022-08-17T01:43:57.477Z,91.10
2022-08-17T01:46:29.892Z,91.10
2022-08-17T01:48:58.169Z,91.10
2022-08-17T01:51:27.874Z,91.30
2022-08-17T01:53:58.727Z,91.50
2022-08-17T01:56:27.947Z,91.40
2022-08-17T01:58:55.634Z,91.20
2022-08-17T02:01:27.859Z,91.70
2022-08-17T02:03:59.778Z,91.60
2022-08-17T02:06:47.125Z,91.60
2022-08-17T02:09:23.410Z,91.70
2022-08-17T02:11:54.232Z,91.80
2022-08-17T02:14:22.704Z,92.20
2022-08-17T02:16:49.813Z,92.10
2022-08-17T02:19:16.985Z,92.40
2022-08-17T02:21:47.140Z,92.40
2022-08-17T02:24:58.160Z,94.40
2022-08-17T02:27:07.378Z,92.00
2022-08-17T02:29:34.262Z,92.20
2022-08-17T02:32:02.027Z,92.40
2022-08-17T02:34:30.005Z,92.40
2022-08-17T02:36:56.812Z,92.30
2022-08-17T02:39:24.148Z,92.20
2022-08-17T02:41:59.808Z,92.40
2022-08-17T02:44:39.023Z,92.60
2022-08-17T02:47:08.717Z,92.40
2022-08-17T14:26:48.716Z,92.70
2022-08-17T14:29:15.760Z,99.70
2022-08-17T14:31:42.814Z,99.40
2022-08-17T14:34:20.727Z,99.00
2022-08-17T14:54:33.076Z,98.90
2022-08-17T14:57:24.867Z,96.20
2022-08-17T14:59:49.224Z,95.10
2022-08-17T15:02:29.751Z,95.60
2022-08-17T15:05:04.348Z,95.60
2022-08-17T15:07:31.940Z,95.30
2022-08-17T15:10:02.637Z,94.80
2022-08-17T15:12:34.647Z,94.90
2022-08-17T15:15:04.721Z,95.20
2022-08-17T15:17:44.333Z,94.30
2022-08-17T15:20:27.878Z,94.40
2022-08-17T15:22:56.103Z,93.20
2022-08-17T15:25:24.955Z,93.40
2022-08-17T15:27:52.450Z,93.50
2022-08-17T15:30:19.740Z,93.30
2022-08-17T15:32:51.256Z,92.90
2022-08-17T15:35:27.426Z,92.40
2022-08-17T15:38:06.207Z,92.00
2022-08-17T15:40:37.493Z,91.80
2022-08-17T15:43:22.027Z,92.40
2022-08-17T15:46:05.036Z,92.20
2022-08-17T15:48:42.946Z,92.20
2022-08-17T15:51:26.385Z,94.10
2022-08-17T15:53:55.820Z,93.80
2022-08-17T15:56:23.476Z,93.60
2022-08-17T15:58:50.273Z,93.60
2022-08-17T16:02:33.657Z,93.60
2022-08-17T16:04:26.407Z,93.90
2022-08-17T16:06:54.839Z,93.90
2022-08-17T16:09:21.621Z,94.70
2022-08-17T16:11:53.736Z,95.70
2022-08-17T16:14:23.178Z,95.20
2022-08-17T16:16:51.644Z,95.10
2022-08-17T16:19:18.461Z,95.30
2022-08-17T16:21:45.247Z,94.70
2022-08-17T16:24:13.454Z,95.30
2022-08-17T16:26:40.727Z,95.70
2022-08-17T16:29:08.480Z,95.60
2022-08-17T16:31:36.354Z,97.00
2022-08-17T16:34:16.838Z,97.60
2022-08-17T16:36:54.779Z,97.90
2022-08-17T16:39:23.021Z,97.50
2022-08-17T16:41:50.273Z,98.10
2022-08-17T16:44:21.323Z,98.20
2022-08-17T16:46:50.262Z,98.30
2022-08-17T16:49:36.216Z,98.10
2022-08-17T16:52:12.808Z,98.60
2022-08-17T16:54:43.811Z,98.90
2022-08-17T22:07:09.351Z,98.50
2022-08-17T22:09:46.400Z,99.90
2022-08-17T22:12:21.691Z,99.90
2022-08-17T22:15:00.599Z,99.90
2022-08-17T22:17:46.741Z,99.90
2022-08-17T22:20:21.123Z,99.90
2022-08-17T22:23:12.726Z,99.90
2022-08-17T22:25:57.402Z,99.90
2022-08-17T22:28:52.819Z,99.90
2022-08-17T22:31:22.445Z,99.90
2022-08-17T22:34:09.739Z,99.90
2022-08-17T22:36:39.392Z,99.90
2022-08-17T22:39:09.204Z,99.90
2022-08-17T22:41:51.101Z,99.90
2022-08-17T22:44:31.978Z,99.90
2022-08-17T22:47:16.496Z,99.90
2022-08-17T22:50:00.262Z,99.90
2022-08-17T22:53:16.577Z,99.90
2022-08-17T22:56:13.769Z,99.90
2022-08-17T22:59:17.851Z,99.90
2022-08-17T23:02:05.955Z,99.90
2022-08-17T23:04:36.450Z,99.90
2022-08-17T23:07:03.415Z,99.90
2022-08-17T23:09:30.196Z,99.90
2022-08-17T23:11:58.556Z,99.90
2022-08-17T23:14:31.459Z,99.90
2022-08-17T23:16:59.570Z,99.90
2022-08-17T23:19:27.584Z,99.90
2022-08-17T23:21:56.352Z,99.90
2022-08-17T23:24:26.072Z,99.90
2022-08-17T23:26:53.616Z,99.90
2022-08-17T23:29:24.562Z,99.90
2022-08-17T23:31:55.364Z,99.90
2022-08-17T23:34:23.151Z,99.90
2022-08-17T23:36:53.316Z,99.90
2022-08-17T23:39:28.001Z,99.90
2022-08-17T23:42:00.190Z,99.90
2022-08-17T23:44:29.105Z,99.90
2022-08-17T23:46:56.301Z,99.90
2022-08-17T23:49:25.144Z,99.90
2022-08-17T23:51:55.107Z,99.90
2022-08-17T23:54:29.314Z,99.90
2022-08-17T23:56:56.298Z,99.90
2022-08-17T23:59:23.583Z,99.90
